sensor_id;sensor_type;location;lat;lon;timestamp;temperature;humidity
70214;DHT22;60138;55.808;37.078;2022-07-23T00:02:13;16.47;62.57
70214;DHT22;60138;55.808;37.078;2022-07-23T00:04:38;16.41;62.56
70214;DHT22;60138;55.808;37.078;2022-07-23T00:07:04;16.39;62.57
70214;DHT22;60138;55.808;37.078;2022-07-23T00:09:30;16.39;62.80
70214;DHT22;60138;55.808;37.078;2022-07-23T00:11:56;16.37;62.89
70214;DHT22;60138;55.808;37.078;2022-07-23T00:14:22;16.35;62.97
70214;DHT22;60138;55.808;37.078;2022-07-23T00:16:47;16.33;62.76
70214;DHT22;60138;55.808;37.078;2022-07-23T00:19:14;16.29;62.83
70214;DHT22;60138;55.808;37.078;2022-07-23T00:21:39;16.27;62.95
70214;DHT22;60138;55.808;37.078;2022-07-23T00:24:05;16.28;63.34
70214;DHT22;60138;55.808;37.078;2022-07-23T00:26:31;16.27;63.34
70214;DHT22;60138;55.808;37.078;2022-07-23T00:28:57;16.22;63.14
70214;DHT22;60138;55.808;37.078;2022-07-23T00:31:23;16.19;63.14
70214;DHT22;60138;55.808;37.078;2022-07-23T00:33:49;16.16;63.23
70214;DHT22;60138;55.808;37.078;2022-07-23T00:36:15;16.11;63.40
70214;DHT22;60138;55.808;37.078;2022-07-23T00:38:41;16.07;63.44
70214;DHT22;60138;55.808;37.078;2022-07-23T00:41:07;16.05;63.60
70214;DHT22;60138;55.808;37.078;2022-07-23T00:43:33;16.05;63.76
70214;DHT22;60138;55.808;37.078;2022-07-23T00:46:00;16.05;63.85
70214;DHT22;60138;55.808;37.078;2022-07-23T00:48:25;16.03;63.95
70214;DHT22;60138;55.808;37.078;2022-07-23T00:50:52;15.99;63.84
70214;DHT22;60138;55.808;37.078;2022-07-23T00:53:19;15.95;64.10
70214;DHT22;60138;55.808;37.078;2022-07-23T00:55:45;15.90;64.05
70214;DHT22;60138;55.808;37.078;2022-07-23T00:58:12;15.87;64.10
70214;DHT22;60138;55.808;37.078;2022-07-23T01:00:38;15.85;64.05
70214;DHT22;60138;55.808;37.078;2022-07-23T01:03:04;15.83;64.05
70214;DHT22;60138;55.808;37.078;2022-07-23T01:05:30;15.78;64.40
70214;DHT22;60138;55.808;37.078;2022-07-23T01:07:56;15.78;64.57
70214;DHT22;60138;55.808;37.078;2022-07-23T01:10:22;15.75;64.70
70214;DHT22;60138;55.808;37.078;2022-07-23T01:12:48;15.72;64.79
70214;DHT22;60138;55.808;37.078;2022-07-23T01:15:14;15.71;64.97
70214;DHT22;60138;55.808;37.078;2022-07-23T01:17:40;15.69;64.95
70214;DHT22;60138;55.808;37.078;2022-07-23T01:20:06;15.67;65.07
70214;DHT22;60138;55.808;37.078;2022-07-23T01:22:32;15.65;65.23
70214;DHT22;60138;55.808;37.078;2022-07-23T01:24:58;15.63;65.11
70214;DHT22;60138;55.808;37.078;2022-07-23T01:27:26;15.61;64.85
70214;DHT22;60138;55.808;37.078;2022-07-23T01:29:59;15.60;64.98
70214;DHT22;60138;55.808;37.078;2022-07-23T01:32:26;15.57;64.91
70214;DHT22;60138;55.808;37.078;2022-07-23T01:34:52;15.52;64.90
70214;DHT22;60138;55.808;37.078;2022-07-23T01:37:18;15.48;65.19
70214;DHT22;60138;55.808;37.078;2022-07-23T01:39:44;15.44;65.16
70214;DHT22;60138;55.808;37.078;2022-07-23T01:42:11;15.42;65.24
70214;DHT22;60138;55.808;37.078;2022-07-23T01:44:37;15.42;65.34
70214;DHT22;60138;55.808;37.078;2022-07-23T01:47:11;15.43;65.58
70214;DHT22;60138;55.808;37.078;2022-07-23T01:49:37;15.42;65.69
70214;DHT22;60138;55.808;37.078;2022-07-23T01:52:18;15.40;65.59
70214;DHT22;60138;55.808;37.078;2022-07-23T01:54:48;15.38;65.75
70214;DHT22;60138;55.808;37.078;2022-07-23T01:57:14;15.38;65.79
70214;DHT22;60138;55.808;37.078;2022-07-23T01:59:40;15.40;65.80
70214;DHT22;60138;55.808;37.078;2022-07-23T02:02:06;15.40;65.75
70214;DHT22;60138;55.808;37.078;2022-07-23T02:04:32;15.40;65.85
70214;DHT22;60138;55.808;37.078;2022-07-23T02:06:59;15.42;65.79
70214;DHT22;60138;55.808;37.078;2022-07-23T02:09:26;15.42;65.92
70214;DHT22;60138;55.808;37.078;2022-07-23T02:11:51;15.44;66.01
70214;DHT22;60138;55.808;37.078;2022-07-23T02:14:18;15.42;66.22
70214;DHT22;60138;55.808;37.078;2022-07-23T02:16:45;15.42;66.01
70214;DHT22;60138;55.808;37.078;2022-07-23T02:19:11;15.46;66.24
70214;DHT22;60138;55.808;37.078;2022-07-23T02:21:37;15.48;66.35
70214;DHT22;60138;55.808;37.078;2022-07-23T02:24:03;15.49;66.32
70214;DHT22;60138;55.808;37.078;2022-07-23T02:26:29;15.52;66.21
70214;DHT22;60138;55.808;37.078;2022-07-23T02:28:56;15.54;66.27
70214;DHT22;60138;55.808;37.078;2022-07-23T02:31:22;15.55;66.38
70214;DHT22;60138;55.808;37.078;2022-07-23T02:33:47;15.58;68.81
70214;DHT22;60138;55.808;37.078;2022-07-23T02:36:15;15.59;68.54
70214;DHT22;60138;55.808;37.078;2022-07-23T02:38:41;15.60;68.89
70214;DHT22;60138;55.808;37.078;2022-07-23T02:41:08;15.62;68.19
70214;DHT22;60138;55.808;37.078;2022-07-23T02:43:34;15.68;67.74
70214;DHT22;60138;55.808;37.078;2022-07-23T02:46:00;15.72;67.38
70214;DHT22;60138;55.808;37.078;2022-07-23T02:48:25;15.76;67.32
70214;DHT22;60138;55.808;37.078;2022-07-23T02:50:52;15.81;67.33
70214;DHT22;60138;55.808;37.078;2022-07-23T02:53:23;15.88;67.17
70214;DHT22;60138;55.808;37.078;2022-07-23T02:55:49;15.91;67.10
70214;DHT22;60138;55.808;37.078;2022-07-23T02:58:15;15.97;66.98
70214;DHT22;60138;55.808;37.078;2022-07-23T03:00:42;16.03;66.92
70214;DHT22;60138;55.808;37.078;2022-07-23T03:03:07;16.07;66.98
70214;DHT22;60138;55.808;37.078;2022-07-23T03:05:34;16.12;67.03
70214;DHT22;60138;55.808;37.078;2022-07-23T03:08:00;16.16;68.64
70214;DHT22;60138;55.808;37.078;2022-07-23T03:10:26;16.22;68.42
70214;DHT22;60138;55.808;37.078;2022-07-23T03:12:52;16.28;67.43
70214;DHT22;60138;55.808;37.078;2022-07-23T03:15:18;16.30;67.19
70214;DHT22;60138;55.808;37.078;2022-07-23T03:17:44;16.35;67.12
70214;DHT22;60138;55.808;37.078;2022-07-23T03:20:10;16.40;67.58
70214;DHT22;60138;55.808;37.078;2022-07-23T03:22:37;16.43;67.47
70214;DHT22;60138;55.808;37.078;2022-07-23T03:25:03;16.46;67.15
70214;DHT22;60138;55.808;37.078;2022-07-23T03:27:33;16.50;66.85
70214;DHT22;60138;55.808;37.078;2022-07-23T03:29:59;16.55;66.86
70214;DHT22;60138;55.808;37.078;2022-07-23T03:32:26;16.60;66.94
70214;DHT22;60138;55.808;37.078;2022-07-23T03:34:52;16.63;66.90
70214;DHT22;60138;55.808;37.078;2022-07-23T03:37:19;16.67;66.87
70214;DHT22;60138;55.808;37.078;2022-07-23T03:39:45;16.73;66.73
70214;DHT22;60138;55.808;37.078;2022-07-23T03:42:12;16.77;66.98
70214;DHT22;60138;55.808;37.078;2022-07-23T03:44:38;16.82;68.31
70214;DHT22;60138;55.808;37.078;2022-07-23T03:47:04;16.93;68.00
70214;DHT22;60138;55.808;37.078;2022-07-23T03:49:30;17.00;67.00
70214;DHT22;60138;55.808;37.078;2022-07-23T03:51:56;17.02;66.81
70214;DHT22;60138;55.808;37.078;2022-07-23T03:54:22;17.05;66.71
70214;DHT22;60138;55.808;37.078;2022-07-23T03:56:48;17.09;67.09
70214;DHT22;60138;55.808;37.078;2022-07-23T03:59:14;17.18;66.71
70214;DHT22;60138;55.808;37.078;2022-07-23T04:01:40;17.24;69.78
70214;DHT22;60138;55.808;37.078;2022-07-23T04:04:06;17.36;68.42
70214;DHT22;60138;55.808;37.078;2022-07-23T04:06:32;17.47;67.40
70214;DHT22;60138;55.808;37.078;2022-07-23T04:08:59;17.53;67.80
70214;DHT22;60138;55.808;37.078;2022-07-23T04:11:24;17.61;67.12
70214;DHT22;60138;55.808;37.078;2022-07-23T04:13:50;17.70;66.20
70214;DHT22;60138;55.808;37.078;2022-07-23T04:16:16;17.78;66.83
70214;DHT22;60138;55.808;37.078;2022-07-23T04:18:45;17.82;66.58
70214;DHT22;60138;55.808;37.078;2022-07-23T04:21:15;17.85;66.52
70214;DHT22;60138;55.808;37.078;2022-07-23T04:23:41;17.85;66.33
70214;DHT22;60138;55.808;37.078;2022-07-23T04:26:07;17.98;67.97
70214;DHT22;60138;55.808;37.078;2022-07-23T04:28:34;18.11;66.61
70214;DHT22;60138;55.808;37.078;2022-07-23T04:31:01;18.14;66.52
70214;DHT22;60138;55.808;37.078;2022-07-23T04:33:28;18.15;66.59
70214;DHT22;60138;55.808;37.078;2022-07-23T04:35:57;18.25;66.09
70214;DHT22;60138;55.808;37.078;2022-07-23T04:38:22;18.36;66.43
70214;DHT22;60138;55.808;37.078;2022-07-23T04:40:51;18.43;67.78
70214;DHT22;60138;55.808;37.078;2022-07-23T04:43:17;18.58;66.85
70214;DHT22;60138;55.808;37.078;2022-07-23T04:45:46;18.65;66.65
70214;DHT22;60138;55.808;37.078;2022-07-23T04:48:12;18.77;67.26
70214;DHT22;60138;55.808;37.078;2022-07-23T04:50:38;18.92;66.37
70214;DHT22;60138;55.808;37.078;2022-07-23T04:53:05;18.96;67.33
70214;DHT22;60138;55.808;37.078;2022-07-23T04:55:31;19.10;67.37
70214;DHT22;60138;55.808;37.078;2022-07-23T04:57:57;19.24;65.79
70214;DHT22;60138;55.808;37.078;2022-07-23T05:00:23;19.32;65.25
70214;DHT22;60138;55.808;37.078;2022-07-23T05:02:49;19.38;64.01
70214;DHT22;60138;55.808;37.078;2022-07-23T05:05:16;19.41;64.13
70214;DHT22;60138;55.808;37.078;2022-07-23T05:07:44;19.46;64.43
70214;DHT22;60138;55.808;37.078;2022-07-23T05:10:10;19.60;66.64
70214;DHT22;60138;55.808;37.078;2022-07-23T05:12:36;19.74;65.41
70214;DHT22;60138;55.808;37.078;2022-07-23T05:15:02;19.84;66.97
70214;DHT22;60138;55.808;37.078;2022-07-23T05:17:29;19.98;65.11
70214;DHT22;60138;55.808;37.078;2022-07-23T05:19:55;20.03;64.11
70214;DHT22;60138;55.808;37.078;2022-07-23T05:22:21;20.09;64.80
70214;DHT22;60138;55.808;37.078;2022-07-23T05:24:47;20.13;65.05
70214;DHT22;60138;55.808;37.078;2022-07-23T05:27:13;20.18;63.31
70214;DHT22;60138;55.808;37.078;2022-07-23T05:29:40;20.24;62.62
70214;DHT22;60138;55.808;37.078;2022-07-23T05:32:06;20.36;62.79
70214;DHT22;60138;55.808;37.078;2022-07-23T05:34:34;20.40;63.34
70214;DHT22;60138;55.808;37.078;2022-07-23T05:37:00;20.46;64.24
70214;DHT22;60138;55.808;37.078;2022-07-23T05:39:26;20.57;62.56
70214;DHT22;60138;55.808;37.078;2022-07-23T05:41:52;20.68;63.39
70214;DHT22;60138;55.808;37.078;2022-07-23T05:44:18;20.76;64.20
70214;DHT22;60138;55.808;37.078;2022-07-23T05:46:44;20.86;64.53
70214;DHT22;60138;55.808;37.078;2022-07-23T05:49:15;20.98;63.15
70214;DHT22;60138;55.808;37.078;2022-07-23T05:52:06;21.14;62.41
70214;DHT22;60138;55.808;37.078;2022-07-23T05:55:08;21.16;62.96
70214;DHT22;60138;55.808;37.078;2022-07-23T05:57:36;21.21;62.30
70214;DHT22;60138;55.808;37.078;2022-07-23T06:00:07;21.29;61.71
70214;DHT22;60138;55.808;37.078;2022-07-23T06:02:39;21.42;63.11
70214;DHT22;60138;55.808;37.078;2022-07-23T06:05:08;21.55;61.92
70214;DHT22;60138;55.808;37.078;2022-07-23T06:07:34;21.62;61.91
70214;DHT22;60138;55.808;37.078;2022-07-23T06:10:00;21.69;60.62
70214;DHT22;60138;55.808;37.078;2022-07-23T06:12:26;21.66;60.51
70214;DHT22;60138;55.808;37.078;2022-07-23T06:14:53;21.77;60.83
70214;DHT22;60138;55.808;37.078;2022-07-23T06:17:19;21.79;59.85
70214;DHT22;60138;55.808;37.078;2022-07-23T06:19:45;21.84;59.61
70214;DHT22;60138;55.808;37.078;2022-07-23T06:22:11;21.89;59.20
70214;DHT22;60138;55.808;37.078;2022-07-23T06:24:37;21.92;58.30
70214;DHT22;60138;55.808;37.078;2022-07-23T06:27:03;22.02;58.13
70214;DHT22;60138;55.808;37.078;2022-07-23T06:29:29;22.13;57.40
70214;DHT22;60138;55.808;37.078;2022-07-23T06:31:55;22.25;58.12
70214;DHT22;60138;55.808;37.078;2022-07-23T06:34:21;22.34;57.67
70214;DHT22;60138;55.808;37.078;2022-07-23T06:36:47;22.40;56.75
70214;DHT22;60138;55.808;37.078;2022-07-23T06:39:13;22.50;57.30
70214;DHT22;60138;55.808;37.078;2022-07-23T06:41:39;22.54;56.92
70214;DHT22;60138;55.808;37.078;2022-07-23T06:44:04;22.53;57.19
70214;DHT22;60138;55.808;37.078;2022-07-23T06:46:33;22.63;57.46
70214;DHT22;60138;55.808;37.078;2022-07-23T06:49:00;22.68;57.84
70214;DHT22;60138;55.808;37.078;2022-07-23T06:51:28;22.80;56.81
70214;DHT22;60138;55.808;37.078;2022-07-23T06:53:54;22.79;56.62
70214;DHT22;60138;55.808;37.078;2022-07-23T06:56:20;22.81;56.45
70214;DHT22;60138;55.808;37.078;2022-07-23T06:58:46;22.85;56.77
70214;DHT22;60138;55.808;37.078;2022-07-23T07:01:11;22.86;56.61
70214;DHT22;60138;55.808;37.078;2022-07-23T07:03:37;22.91;56.32
70214;DHT22;60138;55.808;37.078;2022-07-23T07:06:03;22.95;56.10
70214;DHT22;60138;55.808;37.078;2022-07-23T07:08:29;22.99;56.13
70214;DHT22;60138;55.808;37.078;2022-07-23T07:10:55;23.02;55.68
70214;DHT22;60138;55.808;37.078;2022-07-23T07:13:21;23.11;55.39
70214;DHT22;60138;55.808;37.078;2022-07-23T07:15:47;23.16;55.05
70214;DHT22;60138;55.808;37.078;2022-07-23T07:18:12;23.25;54.75
70214;DHT22;60138;55.808;37.078;2022-07-23T07:20:38;23.30;54.13
70214;DHT22;60138;55.808;37.078;2022-07-23T07:23:04;23.29;54.27
70214;DHT22;60138;55.808;37.078;2022-07-23T07:25:30;23.24;54.03
70214;DHT22;60138;55.808;37.078;2022-07-23T07:27:56;23.29;53.85
70214;DHT22;60138;55.808;37.078;2022-07-23T07:30:21;23.30;52.69
70214;DHT22;60138;55.808;37.078;2022-07-23T07:32:47;23.43;52.15
70214;DHT22;60138;55.808;37.078;2022-07-23T07:35:13;23.53;52.94
70214;DHT22;60138;55.808;37.078;2022-07-23T07:37:39;23.60;53.48
70214;DHT22;60138;55.808;37.078;2022-07-23T07:40:05;23.64;52.95
70214;DHT22;60138;55.808;37.078;2022-07-23T07:42:31;23.70;49.81
70214;DHT22;60138;55.808;37.078;2022-07-23T07:44:57;23.76;51.79
70214;DHT22;60138;55.808;37.078;2022-07-23T07:47:22;23.80;52.11
70214;DHT22;60138;55.808;37.078;2022-07-23T07:49:48;23.84;52.68
70214;DHT22;60138;55.808;37.078;2022-07-23T07:52:14;23.83;52.78
70214;DHT22;60138;55.808;37.078;2022-07-23T07:54:40;23.85;52.83
70214;DHT22;60138;55.808;37.078;2022-07-23T07:57:06;23.87;52.18
70214;DHT22;60138;55.808;37.078;2022-07-23T07:59:31;23.89;51.88
70214;DHT22;60138;55.808;37.078;2022-07-23T08:01:57;23.92;51.82
70214;DHT22;60138;55.808;37.078;2022-07-23T08:04:23;23.98;50.65
70214;DHT22;60138;55.808;37.078;2022-07-23T08:06:49;24.08;51.98
70214;DHT22;60138;55.808;37.078;2022-07-23T08:09:14;24.25;51.53
70214;DHT22;60138;55.808;37.078;2022-07-23T08:11:40;24.35;51.12
70214;DHT22;60138;55.808;37.078;2022-07-23T08:14:06;24.36;51.38
70214;DHT22;60138;55.808;37.078;2022-07-23T08:16:32;24.41;48.57
70214;DHT22;60138;55.808;37.078;2022-07-23T08:18:58;24.50;49.58
70214;DHT22;60138;55.808;37.078;2022-07-23T08:21:23;24.71;48.84
70214;DHT22;60138;55.808;37.078;2022-07-23T08:23:49;24.82;49.42
70214;DHT22;60138;55.808;37.078;2022-07-23T08:26:15;24.88;49.60
70214;DHT22;60138;55.808;37.078;2022-07-23T08:28:41;24.94;49.72
70214;DHT22;60138;55.808;37.078;2022-07-23T08:31:07;25.04;50.29
70214;DHT22;60138;55.808;37.078;2022-07-23T08:33:32;25.17;47.05
70214;DHT22;60138;55.808;37.078;2022-07-23T08:35:58;25.27;49.10
70214;DHT22;60138;55.808;37.078;2022-07-23T08:38:25;25.36;48.85
70214;DHT22;60138;55.808;37.078;2022-07-23T08:40:53;25.49;49.34
70214;DHT22;60138;55.808;37.078;2022-07-23T08:43:24;25.66;47.61
70214;DHT22;60138;55.808;37.078;2022-07-23T08:45:53;25.83;47.21
70214;DHT22;60138;55.808;37.078;2022-07-23T08:48:21;25.93;47.05
70214;DHT22;60138;55.808;37.078;2022-07-23T08:50:52;25.95;45.61
70214;DHT22;60138;55.808;37.078;2022-07-23T08:53:19;25.90;46.64
70214;DHT22;60138;55.808;37.078;2022-07-23T08:55:47;25.83;46.46
70214;DHT22;60138;55.808;37.078;2022-07-23T08:58:13;25.83;46.64
70214;DHT22;60138;55.808;37.078;2022-07-23T09:00:39;25.87;45.01
70214;DHT22;60138;55.808;37.078;2022-07-23T09:03:05;25.89;45.54
70214;DHT22;60138;55.808;37.078;2022-07-23T09:05:31;25.83;45.27
70214;DHT22;60138;55.808;37.078;2022-07-23T09:08:18;25.78;46.10
70214;DHT22;60138;55.808;37.078;2022-07-23T09:13:33;25.62;43.81
70214;DHT22;60138;55.808;37.078;2022-07-23T09:16:06;25.59;44.13
70214;DHT22;60138;55.808;37.078;2022-07-23T09:18:34;25.59;45.46
70214;DHT22;60138;55.808;37.078;2022-07-23T09:21:08;25.57;46.47
70214;DHT22;60138;55.808;37.078;2022-07-23T09:23:46;25.56;45.98
70214;DHT22;60138;55.808;37.078;2022-07-23T09:26:37;25.49;43.64
70214;DHT22;60138;55.808;37.078;2022-07-23T09:29:17;25.48;46.39
70214;DHT22;60138;55.808;37.078;2022-07-23T09:34:20;25.58;47.74
70214;DHT22;60138;55.808;37.078;2022-07-23T09:36:48;25.72;47.73
70214;DHT22;60138;55.808;37.078;2022-07-23T09:39:27;25.92;47.42
70214;DHT22;60138;55.808;37.078;2022-07-23T09:41:53;26.05;46.46
70214;DHT22;60138;55.808;37.078;2022-07-23T09:44:20;26.16;45.93
70214;DHT22;60138;55.808;37.078;2022-07-23T09:46:48;26.23;46.40
70214;DHT22;60138;55.808;37.078;2022-07-23T09:49:23;26.35;46.33
70214;DHT22;60138;55.808;37.078;2022-07-23T09:51:51;26.50;46.65
70214;DHT22;60138;55.808;37.078;2022-07-23T09:56:48;26.73;47.12
70214;DHT22;60138;55.808;37.078;2022-07-23T09:59:16;26.86;45.32
70214;DHT22;60138;55.808;37.078;2022-07-23T10:01:42;27.02;43.14
70214;DHT22;60138;55.808;37.078;2022-07-23T10:04:10;27.13;43.13
70214;DHT22;60138;55.808;37.078;2022-07-23T10:06:59;27.26;43.25
70214;DHT22;60138;55.808;37.078;2022-07-23T10:09:43;27.37;42.90
70214;DHT22;60138;55.808;37.078;2022-07-23T10:12:31;27.52;43.64
70214;DHT22;60138;55.808;37.078;2022-07-23T10:15:00;27.65;41.54
70214;DHT22;60138;55.808;37.078;2022-07-23T10:17:28;27.80;43.58
70214;DHT22;60138;55.808;37.078;2022-07-23T10:19:54;27.86;43.10
70214;DHT22;60138;55.808;37.078;2022-07-23T10:22:23;28.00;43.14
70214;DHT22;60138;55.808;37.078;2022-07-23T10:36:47;27.82;40.35
70214;DHT22;60138;55.808;37.078;2022-07-23T10:39:32;27.59;41.62
70214;DHT22;60138;55.808;37.078;2022-07-23T10:42:12;27.41;43.83
70214;DHT22;60138;55.808;37.078;2022-07-23T10:44:48;27.35;43.22
70214;DHT22;60138;55.808;37.078;2022-07-23T10:47:30;27.31;43.36
70214;DHT22;60138;55.808;37.078;2022-07-23T10:50:28;27.37;42.46
70214;DHT22;60138;55.808;37.078;2022-07-23T10:57:58;27.30;42.42
70214;DHT22;60138;55.808;37.078;2022-07-23T11:00:31;27.29;41.85
70214;DHT22;60138;55.808;37.078;2022-07-23T11:03:27;27.36;42.78
70214;DHT22;60138;55.808;37.078;2022-07-23T11:05:51;27.45;40.10
70214;DHT22;60138;55.808;37.078;2022-07-23T11:08:20;27.54;42.10
70214;DHT22;60138;55.808;37.078;2022-07-23T11:32:03;28.59;41.68
70214;DHT22;60138;55.808;37.078;2022-07-23T11:34:39;28.57;39.21
70214;DHT22;60138;55.808;37.078;2022-07-23T11:37:12;28.50;40.30
70214;DHT22;60138;55.808;37.078;2022-07-23T11:39:38;28.41;40.23
70214;DHT22;60138;55.808;37.078;2022-07-23T11:42:06;28.35;41.55
70214;DHT22;60138;55.808;37.078;2022-07-23T11:44:39;28.42;42.07
70214;DHT22;60138;55.808;37.078;2022-07-23T11:47:07;28.56;42.06
70214;DHT22;60138;55.808;37.078;2022-07-23T11:49:34;29.04;38.58
70214;DHT22;60138;55.808;37.078;2022-07-23T11:52:07;31.04;39.78
70214;DHT22;60138;55.808;37.078;2022-07-23T11:54:36;32.90;37.46
70214;DHT22;60138;55.808;37.078;2022-07-23T11:57:02;34.39;37.14
70214;DHT22;60138;55.808;37.078;2022-07-23T11:59:35;35.36;33.03
70214;DHT22;60138;55.808;37.078;2022-07-23T12:02:06;36.21;33.52
70214;DHT22;60138;55.808;37.078;2022-07-23T12:04:44;36.62;30.49
70214;DHT22;60138;55.808;37.078;2022-07-23T12:13:01;39.42;26.18
70214;DHT22;60138;55.808;37.078;2022-07-23T12:15:30;40.53;30.95
70214;DHT22;60138;55.808;37.078;2022-07-23T12:17:57;41.44;28.03
70214;DHT22;60138;55.808;37.078;2022-07-23T12:20:26;41.89;30.50
70214;DHT22;60138;55.808;37.078;2022-07-23T12:22:56;40.51;16.05
70214;DHT22;60138;55.808;37.078;2022-07-23T12:25:26;39.82;16.63
70214;DHT22;60138;55.808;37.078;2022-07-23T12:28:31;39.69;17.62
70214;DHT22;60138;55.808;37.078;2022-07-23T12:30:57;39.85;22.59
70214;DHT22;60138;55.808;37.078;2022-07-23T12:33:32;40.24;19.99
70214;DHT22;60138;55.808;37.078;2022-07-23T12:36:01;40.93;24.83
70214;DHT22;60138;55.808;37.078;2022-07-23T12:38:28;41.12;15.82
70214;DHT22;60138;55.808;37.078;2022-07-23T12:40:58;41.16;18.57
70214;DHT22;60138;55.808;37.078;2022-07-23T12:43:30;41.32;16.13
70214;DHT22;60138;55.808;37.078;2022-07-23T12:46:07;41.69;23.88
70214;DHT22;60138;55.808;37.078;2022-07-23T12:48:54;42.40;22.90
70214;DHT22;60138;55.808;37.078;2022-07-23T12:51:30;42.57;18.24
70214;DHT22;60138;55.808;37.078;2022-07-23T12:53:58;42.08;14.49
70214;DHT22;60138;55.808;37.078;2022-07-23T12:56:30;41.65;13.94
70214;DHT22;60138;55.808;37.078;2022-07-23T13:01:37;41.43;17.34
70214;DHT22;60138;55.808;37.078;2022-07-23T13:06:33;41.77;21.95
70214;DHT22;60138;55.808;37.078;2022-07-23T13:08:59;42.79;23.50
70214;DHT22;60138;55.808;37.078;2022-07-23T13:11:25;43.69;22.99
70214;DHT22;60138;55.808;37.078;2022-07-23T13:13:51;44.45;23.23
70214;DHT22;60138;55.808;37.078;2022-07-23T13:16:17;45.11;22.99
70214;DHT22;60138;55.808;37.078;2022-07-23T13:18:43;45.63;23.27
70214;DHT22;60138;55.808;37.078;2022-07-23T13:21:09;45.78;22.08
70214;DHT22;60138;55.808;37.078;2022-07-23T13:23:35;45.30;18.38
70214;DHT22;60138;55.808;37.078;2022-07-23T13:26:01;44.44;16.71
70214;DHT22;60138;55.808;37.078;2022-07-23T13:28:27;43.92;16.37
70214;DHT22;60138;55.808;37.078;2022-07-23T13:30:53;43.70;20.83
70214;DHT22;60138;55.808;37.078;2022-07-23T13:33:21;44.13;20.86
70214;DHT22;60138;55.808;37.078;2022-07-23T13:35:48;44.89;21.79
70214;DHT22;60138;55.808;37.078;2022-07-23T13:38:13;45.31;20.21
70214;DHT22;60138;55.808;37.078;2022-07-23T13:40:42;44.76;9.31
70214;DHT22;60138;55.808;37.078;2022-07-23T13:43:10;42.00;14.55
70214;DHT22;60138;55.808;37.078;2022-07-23T13:45:36;39.51;14.74
70214;DHT22;60138;55.808;37.078;2022-07-23T13:48:02;37.85;17.74
70214;DHT22;60138;55.808;37.078;2022-07-23T13:50:28;36.77;20.86
70214;DHT22;60138;55.808;37.078;2022-07-23T13:52:54;35.98;22.36
70214;DHT22;60138;55.808;37.078;2022-07-23T13:55:20;35.44;23.85
70214;DHT22;60138;55.808;37.078;2022-07-23T13:57:45;36.45;21.08
70214;DHT22;60138;55.808;37.078;2022-07-23T14:00:12;37.67;25.23
70214;DHT22;60138;55.808;37.078;2022-07-23T14:02:39;38.78;21.81
70214;DHT22;60138;55.808;37.078;2022-07-23T14:05:07;39.36;18.70
70214;DHT22;60138;55.808;37.078;2022-07-23T14:07:34;38.46;21.45
70214;DHT22;60138;55.808;37.078;2022-07-23T14:10:01;37.21;20.26
70214;DHT22;60138;55.808;37.078;2022-07-23T14:12:29;36.23;22.84
70214;DHT22;60138;55.808;37.078;2022-07-23T14:14:55;35.38;22.89
70214;DHT22;60138;55.808;37.078;2022-07-23T14:17:21;34.75;23.48
70214;DHT22;60138;55.808;37.078;2022-07-23T14:19:47;34.30;22.89
70214;DHT22;60138;55.808;37.078;2022-07-23T14:22:13;34.17;23.66
70214;DHT22;60138;55.808;37.078;2022-07-23T14:24:39;35.15;21.73
70214;DHT22;60138;55.808;37.078;2022-07-23T14:27:06;36.30;25.51
70214;DHT22;60138;55.808;37.078;2022-07-23T14:29:32;37.35;20.34
70214;DHT22;60138;55.808;37.078;2022-07-23T14:31:59;36.82;19.31
70214;DHT22;60138;55.808;37.078;2022-07-23T14:34:25;35.86;22.58
70214;DHT22;60138;55.808;37.078;2022-07-23T14:36:51;35.13;22.98
70214;DHT22;60138;55.808;37.078;2022-07-23T14:39:17;34.56;22.50
70214;DHT22;60138;55.808;37.078;2022-07-23T14:41:44;34.60;25.30
70214;DHT22;60138;55.808;37.078;2022-07-23T14:44:10;34.81;25.14
70214;DHT22;60138;55.808;37.078;2022-07-23T14:46:36;35.62;22.71
70214;DHT22;60138;55.808;37.078;2022-07-23T14:49:02;36.69;25.52
70214;DHT22;60138;55.808;37.078;2022-07-23T14:51:28;37.82;24.94
70214;DHT22;60138;55.808;37.078;2022-07-23T14:53:54;38.39;24.34
70214;DHT22;60138;55.808;37.078;2022-07-23T14:56:20;39.53;23.84
70214;DHT22;60138;55.808;37.078;2022-07-23T14:58:46;40.21;23.46
70214;DHT22;60138;55.808;37.078;2022-07-23T15:01:11;41.09;23.81
70214;DHT22;60138;55.808;37.078;2022-07-23T15:03:37;41.96;23.34
70214;DHT22;60138;55.808;37.078;2022-07-23T15:06:04;42.80;22.76
70214;DHT22;60138;55.808;37.078;2022-07-23T15:08:30;43.07;22.27
70214;DHT22;60138;55.808;37.078;2022-07-23T15:10:56;43.27;22.05
70214;DHT22;60138;55.808;37.078;2022-07-23T15:13:22;43.82;21.81
70214;DHT22;60138;55.808;37.078;2022-07-23T15:15:48;44.15;20.93
70214;DHT22;60138;55.808;37.078;2022-07-23T15:18:14;43.58;19.38
70214;DHT22;60138;55.808;37.078;2022-07-23T15:20:39;41.96;16.45
70214;DHT22;60138;55.808;37.078;2022-07-23T15:23:06;39.79;15.62
70214;DHT22;60138;55.808;37.078;2022-07-23T15:25:32;38.34;18.14
70214;DHT22;60138;55.808;37.078;2022-07-23T15:27:58;37.44;20.36
70214;DHT22;60138;55.808;37.078;2022-07-23T15:30:25;36.81;22.40
70214;DHT22;60138;55.808;37.078;2022-07-23T15:32:51;36.43;21.80
70214;DHT22;60138;55.808;37.078;2022-07-23T15:35:17;35.86;22.75
70214;DHT22;60138;55.808;37.078;2022-07-23T15:37:43;35.47;23.59
70214;DHT22;60138;55.808;37.078;2022-07-23T15:40:09;35.00;21.23
70214;DHT22;60138;55.808;37.078;2022-07-23T15:42:36;34.46;22.08
70214;DHT22;60138;55.808;37.078;2022-07-23T15:45:04;33.92;23.09
70214;DHT22;60138;55.808;37.078;2022-07-23T15:47:30;33.57;25.20
70214;DHT22;60138;55.808;37.078;2022-07-23T15:49:56;33.34;26.07
70214;DHT22;60138;55.808;37.078;2022-07-23T15:52:22;33.17;25.68
70214;DHT22;60138;55.808;37.078;2022-07-23T15:54:49;32.92;26.20
70214;DHT22;60138;55.808;37.078;2022-07-23T15:57:14;32.74;26.87
70214;DHT22;60138;55.808;37.078;2022-07-23T15:59:40;32.41;26.63
70214;DHT22;60138;55.808;37.078;2022-07-23T16:02:06;32.12;27.52
70214;DHT22;60138;55.808;37.078;2022-07-23T16:04:32;31.92;27.81
70214;DHT22;60138;55.808;37.078;2022-07-23T16:06:59;31.76;28.29
70214;DHT22;60138;55.808;37.078;2022-07-23T16:09:25;31.60;28.34
70214;DHT22;60138;55.808;37.078;2022-07-23T16:11:51;31.44;28.88
70214;DHT22;60138;55.808;37.078;2022-07-23T16:14:17;31.29;28.87
70214;DHT22;60138;55.808;37.078;2022-07-23T16:16:43;31.12;29.04